Time;durP1;ratioP1;P1;durP2;ratioP2;P2;SDS_P1;SDS_P2;PMS_P1;PMS_P2;Temp;Humidity;BMP_temperature;BMP_pressure;BME280_temperature;BME280_humidity;BME280_pressure;Samples;Min_cycle;Max_cycle;Signal;HPM_P1;HPM_P2
2021/04/12 00:01:08;;;;;;;2.28;1.90;;;;;;;7.81;72.13;96559.16;5004307;28;20050;-81
2021/04/12 00:03:47;;;;;;;2.60;2.40;;;;;;;7.76;72.46;96564.06;5004582;28;20046;-79
2021/04/12 00:06:19;;;;;;;2.42;2.22;;;;;;;7.70;72.15;96562.13;5003900;28;20466;-86
2021/04/12 00:08:49;;;;;;;;;;;;;;;7.66;72.29;96558.22;5003738;28;20046;-81
2021/04/12 00:11:28;;;;;;;1.88;1.77;;;;;;;7.60;72.02;96545.88;5001589;28;19956;-88
2021/04/12 00:14:00;;;;;;;2.13;1.92;;;;;;;7.59;72.53;96555.47;5003347;28;20066;-84
2021/04/12 00:16:32;;;;;;;2.70;2.50;;;;;;;7.59;72.57;96552.88;5003208;28;20050;-81
2021/04/12 00:19:05;;;;;;;2.93;2.67;;;;;;;7.59;72.68;96547.69;5002277;28;20402;-86
2021/04/12 00:21:40;;;;;;;2.45;2.25;;;;;;;7.62;72.54;96549.13;5002144;28;20137;-83
2021/04/12 00:24:13;;;;;;;2.80;2.60;;;;;;;7.60;72.46;96553.69;5001304;28;20113;-83
2021/04/12 00:26:44;;;;;;;2.58;2.38;;;;;;;7.55;72.32;96555.97;5002894;28;20133;-86
2021/04/12 00:29:16;;;;;;;2.53;2.33;;;;;;;7.49;72.77;96554.81;5000552;28;20077;-84
2021/04/12 00:31:49;;;;;;;2.90;2.70;;;;;;;7.43;72.51;96564.09;5001988;28;20054;-84
2021/04/12 00:34:21;;;;;;;;;;;;;;;7.37;72.91;96561.34;5001545;28;20054;-82
2021/04/12 00:36:54;;;;;;;3.20;2.90;;;;;;;7.28;73.01;96565.72;5001527;28;19921;-85
2021/04/12 00:39:31;;;;;;;2.70;2.38;;;;;;;7.24;72.41;96567.00;5002326;28;20058;-81
2021/04/12 00:42:30;;;;;;;2.33;2.13;;;;;;;7.20;73.25;96571.69;5000760;28;20419;-80
2021/04/12 00:45:12;;;;;;;3.25;2.70;;;;;;;7.15;73.11;96578.31;4999253;28;20056;-83
2021/04/12 00:47:53;;;;;;;2.70;2.50;;;;;;;7.12;73.04;96596.81;5000223;28;20114;-81
2021/04/12 00:50:30;;;;;;;2.25;2.05;;;;;;;7.07;72.81;96596.50;4999169;28;20054;-82
2021/04/12 00:53:21;;;;;;;2.50;2.30;;;;;;;7.04;73.30;96607.16;4999477;28;20141;-81
2021/04/12 00:55:53;;;;;;;2.67;2.38;;;;;;;7.03;72.67;96610.75;4999169;28;20053;-85
2021/04/12 00:58:30;;;;;;;2.47;2.28;;;;;;;7.04;72.83;96614.94;4999756;28;20494;-81
2021/04/12 01:01:14;;;;;;;3.08;2.50;;;;;;;7.03;73.20;96611.53;4999598;28;20080;-81
2021/04/12 01:04:00;;;;;;;2.72;2.53;;;;;;;7.01;73.79;96621.25;4999280;28;20542;-81
2021/04/12 01:06:41;;;;;;;2.55;2.35;;;;;;;6.99;72.78;96621.41;4999012;28;20135;-80
2021/04/12 01:09:40;;;;;;;2.42;2.25;;;;;;;6.91;73.18;96628.38;4998837;28;20093;-81
2021/04/12 01:12:40;;;;;;;2.30;2.10;;;;;;;6.80;72.38;96627.72;4967301;28;20050;-79
2021/04/12 01:15:30;;;;;;;2.22;2.03;;;;;;;6.73;72.80;96628.47;4999685;28;20504;-81
2021/04/12 01:18:31;;;;;;;1.80;1.70;;;;;;;6.66;72.44;96640.44;4998582;28;20078;-83
2021/04/12 01:21:17;;;;;;;1.90;1.80;;;;;;;6.55;72.42;96652.69;4998267;28;20050;-83
2021/04/12 01:24:13;;;;;;;1.50;1.40;;;;;;;6.46;72.11;96640.69;5006096;28;20047;-83
2021/04/12 01:27:25;;;;;;;0.98;0.98;;;;;;;6.36;72.05;96645.16;5011027;28;20053;-87
2021/04/12 01:30:41;;;;;;;0.80;0.80;;;;;;;6.23;70.39;96649.94;5011196;28;20398;-81
2021/04/12 01:33:56;;;;;;;0.60;0.60;;;;;;;6.00;69.69;96666.00;4931388;29;20052;-86
2021/04/12 01:36:37;;;;;;;0.65;0.65;;;;;;;5.86;69.64;96679.44;5010697;28;20056;-87
2021/04/12 01:39:21;;;;;;;0.68;0.68;;;;;;;5.72;70.03;96681.59;5009605;28;20054;-84
2021/04/12 01:42:00;;;;;;;0.82;0.82;;;;;;;5.62;70.58;96693.81;5008341;28;20054;-88
2021/04/12 01:44:44;;;;;;;0.80;0.80;;;;;;;5.52;69.59;96699.06;5008475;28;20050;-85
2021/04/12 01:47:25;;;;;;;0.73;0.73;;;;;;;5.38;69.96;96712.50;5007844;28;20075;-85
2021/04/12 01:50:25;;;;;;;0.77;0.77;;;;;;;5.28;70.37;96717.72;5007047;28;20053;-84
2021/04/12 01:53:21;;;;;;;0.90;0.90;;;;;;;5.15;70.59;96727.63;5007194;28;20050;-90
2021/04/12 01:56:14;;;;;;;0.60;0.60;;;;;;;5.08;70.76;96729.97;5007160;28;20050;-85
2021/04/12 01:58:44;;;;;;;;;;;;;;;5.11;70.95;96737.41;5008353;28;20137;-83
2021/04/12 02:01:29;;;;;;;1.08;1.08;;;;;;;5.04;71.00;96740.75;5008926;28;20392;-86
2021/04/12 02:04:12;;;;;;;1.55;1.33;;;;;;;4.96;70.65;96746.59;5007991;28;20137;-88
2021/04/12 02:06:58;;;;;;;1.20;1.17;;;;;;;4.90;69.98;96745.44;5007926;28;20525;-85
2021/04/12 02:09:39;;;;;;;1.95;1.27;;;;;;;4.82;70.37;96742.72;5007069;28;20057;-85
2021/04/12 02:12:19;;;;;;;1.75;1.65;;;;;;;4.79;70.31;96748.19;5006390;28;20062;-84
2021/04/12 02:15:04;;;;;;;1.00;1.00;;;;;;;4.76;70.85;96743.28;5008591;28;20054;-85
2021/04/12 02:17:50;;;;;;;1.20;1.10;;;;;;;4.76;70.68;96751.03;5012363;28;20113;-84
2021/04/12 02:20:24;;;;;;;0.90;0.90;;;;;;;4.75;70.61;96752.03;5013038;28;20080;-89
2021/04/12 02:23:05;;;;;;;1.08;1.08;;;;;;;4.69;70.20;96762.91;5012336;28;20046;-90
2021/04/12 02:25:42;;;;;;;1.15;1.08;;;;;;;4.64;70.49;96765.13;5012125;28;20050;-84
2021/04/12 02:28:22;;;;;;;1.17;1.17;;;;;;;4.61;70.40;96757.63;5011398;28;20081;-84
2021/04/12 02:30:55;;;;;;;1.20;1.20;;;;;;;4.58;70.57;96757.91;5010961;28;20058;-91
2021/04/12 02:33:31;;;;;;;1.42;1.33;;;;;;;4.53;70.67;96769.47;5009135;28;20514;-88
2021/04/12 02:36:08;;;;;;;1.77;1.67;;;;;;;4.45;70.41;96782.28;5008977;28;20081;-86
2021/04/12 02:39:00;;;;;;;1.50;1.40;;;;;;;4.40;71.26;96788.81;5009653;28;20046;-86
2021/04/12 02:41:40;;;;;;;1.60;1.50;;;;;;;4.36;71.70;96803.78;5011858;28;20057;-87
2021/04/12 02:44:34;;;;;;;1.35;1.23;;;;;;;4.30;71.33;96812.06;5009814;28;20062;-87
2021/04/12 02:47:24;;;;;;;1.50;1.40;;;;;;;4.26;71.27;96818.44;5008986;28;20110;-86
2021/04/12 02:50:04;;;;;;;1.20;1.10;;;;;;;4.24;71.76;96816.03;5008190;28;20058;-86
2021/04/12 02:52:36;;;;;;;1.60;1.50;;;;;;;4.24;71.20;96817.75;5006982;28;20462;-85
2021/04/12 02:55:31;;;;;;;1.70;1.60;;;;;;;4.23;71.36;96810.97;5007020;28;20054;-84
2021/04/12 02:58:31;;;;;;;2.03;1.90;;;;;;;4.19;71.02;96812.22;5006999;28;20050;-87
2021/04/12 03:01:08;;;;;;;1.98;1.88;;;;;;;4.18;71.00;96819.16;5005728;28;20046;-88
2021/04/12 03:03:48;;;;;;;1.80;1.70;;;;;;;4.15;71.17;96818.59;5004313;28;20046;-86
2021/04/12 03:06:50;;;;;;;2.10;1.90;;;;;;;4.11;71.61;96824.03;5006696;28;20054;-86
2021/04/12 03:09:54;;;;;;;1.90;1.80;;;;;;;4.08;71.50;96824.28;5007000;28;20069;-86
2021/04/12 03:12:49;;;;;;;2.15;1.95;;;;;;;4.03;71.24;96818.72;5007457;28;20061;-85
2021/04/12 03:15:45;;;;;;;1.65;1.55;;;;;;;4.01;71.61;96819.81;5006004;28;20114;-85
2021/04/12 03:18:27;;;;;;;2.17;1.98;;;;;;;3.96;71.65;96825.38;4999626;28;20050;-89
2021/04/12 03:21:11;;;;;;;1.70;1.60;;;;;;;3.92;71.66;96826.59;5005879;28;20057;-86
2021/04/12 03:23:51;;;;;;;1.75;1.65;;;;;;;3.92;71.61;96829.19;5004801;28;20050;-86
2021/04/12 03:26:30;;;;;;;1.80;1.70;;;;;;;3.89;72.02;96832.84;5005336;28;20050;-82
2021/04/12 03:29:09;;;;;;;2.20;2.05;;;;;;;3.84;71.94;96840.16;5005462;28;20058;-86
2021/04/12 03:32:11;;;;;;;1.70;1.60;;;;;;;3.80;72.01;96837.97;5005134;28;20212;-85
2021/04/12 03:34:47;;;;;;;1.83;1.73;;;;;;;3.80;71.71;96851.69;5004684;28;20074;-85
2021/04/12 03:37:27;;;;;;;1.70;1.60;;;;;;;3.81;72.00;96840.44;5004394;28;20058;-86
2021/04/12 03:39:59;;;;;;;1.80;1.70;;;;;;;3.79;71.86;96844.09;5002415;28;20157;-86
2021/04/12 03:42:35;;;;;;;;;;;;;;;3.79;72.55;96852.66;5004135;28;20046;-81
2021/04/12 03:45:12;;;;;;;1.65;1.55;;;;;;;3.71;71.62;96858.47;5005126;28;19922;-83
2021/04/12 03:47:54;;;;;;;1.95;1.85;;;;;;;3.64;71.79;96859.94;5008972;28;20133;-83
2021/04/12 03:50:40;;;;;;;2.42;2.22;;;;;;;3.59;72.38;96867.28;5008102;28;20058;-85
2021/04/12 03:53:40;;;;;;;2.25;2.05;;;;;;;3.55;72.69;96878.81;5006925;28;20081;-84
2021/04/12 03:56:22;;;;;;;2.60;2.40;;;;;;;3.52;73.06;96886.81;5006045;28;20062;-81
2021/04/12 03:59:06;;;;;;;2.45;2.25;;;;;;;3.49;73.35;96893.03;5005281;28;20046;-81
2021/04/12 04:01:49;;;;;;;2.60;2.40;;;;;;;3.46;73.00;96898.47;5004996;28;20086;-84
2021/04/12 04:04:30;;;;;;;2.22;2.03;;;;;;;3.44;73.27;96899.53;5004512;28;20050;-80
2021/04/12 04:07:28;;;;;;;3.28;2.17;;;;;;;3.41;73.30;96897.19;5003458;28;20137;-86
2021/04/12 04:10:12;;;;;;;2.45;2.25;;;;;;;3.40;72.89;96911.84;5004057;28;20054;-83
2021/04/12 04:12:49;;;;;;;2.53;2.33;;;;;;;3.38;73.34;96910.38;5003374;28;20046;-78
2021/04/12 04:15:29;;;;;;;2.55;2.35;;;;;;;3.41;73.28;96915.25;5002498;28;20054;-86
2021/04/12 04:18:24;;;;;;;2.63;2.42;;;;;;;3.38;72.81;96916.34;5004694;28;20058;-83
2021/04/12 04:21:34;;;;;;;2.55;2.35;;;;;;;3.35;73.24;96918.38;4988575;28;20046;-80
2021/04/12 04:24:28;;;;;;;2.72;2.53;;;;;;;3.29;72.89;96917.91;5001775;28;20053;-82
2021/04/12 04:27:09;;;;;;;3.30;3.00;;;;;;;3.25;72.61;96931.19;5002674;28;20050;-79
2021/04/12 04:30:10;;;;;;;3.22;2.92;;;;;;;3.22;73.33;96931.47;5002783;28;20060;-80
2021/04/12 04:33:04;;;;;;;3.80;3.35;;;;;;;3.21;73.56;96935.78;5002545;28;20125;-84
2021/04/12 04:35:59;;;;;;;3.22;2.92;;;;;;;3.20;73.35;96944.47;4994802;28;20619;-83
2021/04/12 04:38:54;;;;;;;3.40;3.03;;;;;;;3.17;73.92;96955.03;4985222;28;20061;-85
2021/04/12 04:41:41;;;;;;;4.28;3.65;;;;;;;3.16;73.73;96953.41;5002584;28;20059;-82
2021/04/12 04:44:34;;;;;;;3.83;3.47;;;;;;;3.15;73.92;96961.25;5000394;28;20417;-81
2021/04/12 04:47:34;;;;;;;4.05;3.65;;;;;;;3.12;74.18;96977.78;4997016;28;20046;-81
2021/04/12 04:50:35;;;;;;;4.70;3.50;;;;;;;3.11;73.94;96976.16;4999098;28;20065;-81
2021/04/12 04:53:22;;;;;;;4.18;3.78;;;;;;;3.13;73.90;96979.44;4995508;28;20056;-78
2021/04/12 04:56:13;;;;;;;3.80;3.30;;;;;;;3.16;74.12;96980.94;4999232;28;20046;-82
2021/04/12 04:58:58;;;;;;;4.50;3.65;;;;;;;3.24;75.09;96981.94;5002994;28;20050;-79
2021/04/12 05:01:56;;;;;;;4.30;3.90;;;;;;;3.40;75.42;96996.16;5003598;28;20072;-84
2021/04/12 05:04:55;;;;;;;4.40;4.00;;;;;;;3.43;73.67;96991.56;5000070;28;20114;-78
2021/04/12 05:07:49;;;;;;;4.70;4.20;;;;;;;3.40;73.59;97001.31;5002031;28;20042;-79
2021/04/12 05:10:40;;;;;;;4.72;4.32;;;;;;;3.37;73.61;97006.69;5004593;28;20057;-80
2021/04/12 05:13:26;;;;;;;4.72;4.32;;;;;;;3.35;73.35;97024.09;5003081;28;20058;-84
2021/04/12 05:16:19;;;;;;;5.20;4.63;;;;;;;3.30;73.63;97027.00;4988977;28;20110;-81
2021/04/12 05:19:19;;;;;;;5.18;4.68;;;;;;;3.29;73.47;97035.72;4988479;28;20059;-79
2021/04/12 05:22:21;;;;;;;5.65;4.97;;;;;;;3.26;73.64;97051.44;4988340;28;20042;-83
2021/04/12 05:24:58;;;;;;;4.63;4.22;;;;;;;3.23;73.52;97055.06;4983854;28;20047;-82
2021/04/12 05:27:38;;;;;;;5.10;4.60;;;;;;;3.22;73.57;97045.72;4989080;28;20078;-87
2021/04/12 05:30:38;;;;;;;6.85;5.80;;;;;;;3.23;74.00;97043.94;4990177;28;20055;-84
2021/04/12 05:33:15;;;;;;;5.25;4.38;;;;;;;3.22;73.29;97045.72;4987176;28;20053;-83
2021/04/12 05:35:53;;;;;;;4.95;4.45;;;;;;;3.22;74.31;97055.22;4985656;28;20417;-82
2021/04/12 05:38:49;;;;;;;4.30;3.90;;;;;;;3.22;74.42;97050.06;4985004;28;20047;-81
2021/04/12 05:41:52;;;;;;;3.95;3.55;;;;;;;3.20;74.75;97057.09;4984777;28;20051;-83
2021/04/12 05:44:41;;;;;;;3.95;3.50;;;;;;;3.19;74.65;97058.84;4984956;28;20047;-82
2021/04/12 05:47:28;;;;;;;5.25;3.88;;;;;;;3.21;74.74;97079.34;4998235;28;20074;-85
2021/04/12 05:50:42;;;;;;;4.38;3.97;;;;;;;3.19;74.34;97082.06;4998456;28;20067;-86
2021/04/12 05:53:45;;;;;;;4.63;4.15;;;;;;;3.17;73.56;97094.25;5000715;28;20035;-87
2021/04/12 05:57:04;;;;;;;4.55;4.15;;;;;;;3.13;74.38;97092.84;5000987;28;20070;-89
2021/04/12 06:00:22;;;;;;;5.95;4.03;;;;;;;3.14;74.23;97102.22;4959683;28;20047;-84
2021/04/12 06:03:39;;;;;;;4.97;4.43;;;;;;;3.15;74.71;97111.59;4985461;28;20031;-86
2021/04/12 06:06:44;;;;;;;7.72;5.63;;;;;;;3.16;74.83;97113.22;4996287;28;20061;-83
2021/04/12 06:09:39;;;;;;;6.10;4.95;;;;;;;3.16;74.66;97113.22;4993778;28;20054;-87
2021/04/12 06:12:59;;;;;;;6.20;4.97;;;;;;;3.20;74.76;97113.81;4999850;28;20046;-87
2021/04/12 06:16:15;;;;;;;6.47;5.03;;;;;;;3.21;74.83;97116.25;4991070;28;20044;-88
2021/04/12 06:19:21;;;;;;;6.22;5.47;;;;;;;3.25;74.81;97125.38;5000714;28;20105;-89
2021/04/12 06:22:38;;;;;;;6.22;5.63;;;;;;;3.29;74.92;97131.09;4987449;28;20058;-90
2021/04/12 06:25:49;;;;;;;6.60;4.75;;;;;;;3.31;74.84;97134.38;4987427;28;20051;-81
2021/04/12 06:29:13;;;;;;;6.60;5.90;;;;;;;3.29;74.48;97139.66;5084722;23;20042;-88
2021/04/12 06:32:31;;;;;;;7.82;5.00;;;;;;;3.32;74.92;97142.94;5018724;28;20073;-89
2021/04/12 06:35:34;;;;;;;7.68;5.93;;;;;;;3.32;75.13;97150.66;5009393;28;20110;-90
2021/04/12 06:50:46;;;;;;;5.82;5.22;;;;;;;3.35;74.75;97189.13;5015148;28;20038;-89
2021/04/12 06:54:06;;;;;;;5.53;4.93;;;;;;;3.37;75.06;97202.69;5018578;28;20050;-87
2021/04/12 06:57:33;;;;;;;5.90;4.70;;;;;;;3.39;74.42;97196.50;4956346;28;21065;-89
2021/04/12 07:00:39;;;;;;;7.47;5.88;;;;;;;3.40;74.69;97212.78;5017699;28;20054;-87
2021/04/12 07:03:38;;;;;;;5.65;5.05;;;;;;;3.34;74.03;97211.50;5016743;28;20141;-89
2021/04/12 07:07:02;;;;;;;5.43;4.88;;;;;;;3.35;74.65;97220.06;5019292;28;20053;-89
2021/04/12 07:10:11;;;;;;;6.10;4.57;;;;;;;3.37;74.05;97229.31;5059795;23;20042;-86
2021/04/12 07:13:30;;;;;;;7.97;5.32;;;;;;;3.38;74.19;97235.28;5004328;28;20046;-90
2021/04/12 07:16:37;;;;;;;5.75;5.13;;;;;;;3.39;74.60;97242.06;5018934;28;20066;-87
2021/04/12 07:19:33;;;;;;;6.32;4.47;;;;;;;3.41;73.82;97240.19;5019171;28;20050;-88
2021/04/12 07:22:41;;;;;;;5.50;4.95;;;;;;;3.41;74.25;97246.19;5018808;28;20050;-89
2021/04/12 07:25:50;;;;;;;5.45;4.93;;;;;;;3.43;74.20;97246.03;5018914;28;20688;-88
2021/04/12 07:29:06;;;;;;;5.28;4.65;;;;;;;3.42;74.59;97258.13;5018225;28;20069;-88
2021/04/12 07:32:10;;;;;;;7.22;5.78;;;;;;;3.43;74.81;97261.53;5018769;28;20041;-85
2021/04/12 07:35:23;;;;;;;6.88;5.35;;;;;;;3.44;74.37;97270.91;5018426;28;20049;-89
2021/04/12 07:38:43;;;;;;;5.63;5.00;;;;;;;3.45;74.07;97267.38;5018663;28;20098;-87
2021/04/12 07:41:50;;;;;;;7.95;6.10;;;;;;;3.48;74.67;97274.91;5018488;28;20026;-87
2021/04/12 07:45:14;;;;;;;7.68;6.40;;;;;;;3.49;74.34;97284.25;5018161;28;20038;-88
2021/04/12 07:48:21;;;;;;;6.65;5.90;;;;;;;3.51;74.17;97293.50;5018345;28;20038;-90
2021/04/12 07:51:30;;;;;;;5.72;5.10;;;;;;;3.54;73.83;97297.59;5002565;28;20046;-90
2021/04/12 07:55:09;;;;;;;6.28;5.50;;;;;;;3.57;74.24;97299.97;5016601;28;20070;-89
2021/04/12 07:58:24;;;;;;;6.90;4.75;;;;;;;3.58;73.77;97308.50;4939019;29;20603;-85
2021/04/12 08:01:25;;;;;;;8.77;6.72;;;;;;;3.55;73.62;97309.56;5017556;28;20050;-88
2021/04/12 08:04:25;;;;;;;9.63;6.60;;;;;;;3.45;73.34;97306.88;5017556;28;20093;-90
2021/04/12 08:07:45;;;;;;;9.00;5.97;;;;;;;3.40;74.21;97319.31;5015784;28;20057;-88
2021/04/12 08:10:49;;;;;;;7.53;5.78;;;;;;;3.40;74.14;97313.34;5013672;28;20056;-89
2021/04/12 08:14:00;;;;;;;10.60;6.45;;;;;;;3.39;74.32;97312.53;4989354;28;20042;-87
2021/04/12 08:17:09;;;;;;;6.28;5.32;;;;;;;3.37;74.01;97321.31;4977392;28;20054;-88
2021/04/12 08:20:12;;;;;;;5.95;5.13;;;;;;;3.35;74.18;97324.03;4982866;28;20085;-86
2021/04/12 08:23:21;;;;;;;6.35;5.25;;;;;;;3.35;73.68;97323.22;4993691;28;20126;-88
2021/04/12 08:26:42;;;;;;;8.30;5.80;;;;;;;3.40;73.06;97332.22;4996634;28;20065;-89
2021/04/12 08:29:59;;;;;;;6.05;5.20;;;;;;;3.48;75.02;97329.06;4968310;28;20039;-87
2021/04/12 08:33:14;;;;;;;5.38;4.65;;;;;;;3.68;74.74;97333.47;4996205;28;20042;-88
2021/04/12 08:36:19;;;;;;;5.20;4.63;;;;;;;3.88;74.94;97336.25;4994989;28;20054;-90
2021/04/12 08:39:21;;;;;;;5.50;4.18;;;;;;;4.06;74.07;97342.50;4981554;28;20046;-88
2021/04/12 08:42:27;;;;;;;5.03;4.15;;;;;;;4.18;72.46;97347.66;4994884;28;20042;-88
2021/04/12 08:45:22;;;;;;;5.60;4.78;;;;;;;4.20;71.52;97350.91;4998503;28;20059;-90
2021/04/12 08:48:18;;;;;;;6.43;4.43;;;;;;;4.18;71.49;97358.00;4995587;28;20043;-91
2021/04/12 08:51:13;;;;;;;5.38;4.88;;;;;;;4.17;71.71;97353.75;4997376;28;20051;-90
2021/04/12 08:54:09;;;;;;;7.43;4.55;;;;;;;4.16;71.32;97360.69;4997642;28;20185;-91
2021/04/12 08:56:50;;;;;;;7.20;5.75;;;;;;;4.15;70.78;97366.78;4992921;28;20062;-88
2021/04/12 09:00:03;;;;;;;6.93;4.85;;;;;;;4.15;70.59;97360.81;4993285;28;20110;-89
2021/04/12 09:03:20;;;;;;;6.70;4.90;;;;;;;4.18;71.30;97368.31;4995582;28;20050;-87
2021/04/12 09:06:22;;;;;;;6.47;4.82;;;;;;;4.22;71.17;97369.69;4993264;28;20118;-88
2021/04/12 09:09:29;;;;;;;5.75;5.15;;;;;;;4.23;69.81;97364.41;4995297;28;20058;-90
2021/04/12 09:12:27;;;;;;;6.20;4.80;;;;;;;4.24;70.53;97365.22;4993782;28;20078;-87
2021/04/12 09:15:33;;;;;;;6.05;4.40;;;;;;;4.26;69.94;97366.75;4992414;28;20089;-81
2021/04/12 09:18:33;;;;;;;6.78;5.30;;;;;;;4.32;70.64;97370.59;4993654;28;20047;-80
2021/04/12 09:21:40;;;;;;;6.00;5.28;;;;;;;4.36;69.60;97371.19;4991968;28;20476;-91
2021/04/12 09:24:51;;;;;;;6.35;5.18;;;;;;;4.37;69.53;97378.78;4992569;28;20053;-84
2021/04/12 09:28:04;;;;;;;7.20;5.50;;;;;;;4.41;70.04;97375.00;4972976;28;20572;-82
2021/04/12 09:30:59;;;;;;;9.23;6.13;;;;;;;4.47;69.35;97381.47;4993180;28;20053;-81
2021/04/12 09:34:07;;;;;;;8.63;6.10;;;;;;;4.50;68.99;97373.44;4988922;28;20469;-89
2021/04/12 09:37:03;;;;;;;6.22;5.43;;;;;;;4.56;68.94;97385.06;4987624;28;20051;-87
2021/04/12 09:39:45;;;;;;;6.35;5.70;;;;;;;4.62;70.17;97377.63;4946628;28;20521;-86
2021/04/12 09:42:52;;;;;;;6.28;5.40;;;;;;;4.67;68.64;97385.81;4987562;28;20062;-84
2021/04/12 09:46:11;;;;;;;6.18;5.45;;;;;;;4.67;68.98;97397.94;4987054;28;20074;-88
2021/04/12 09:49:22;;;;;;;5.95;5.35;;;;;;;4.62;68.43;97387.97;4986746;28;20070;-88
2021/04/12 09:52:42;;;;;;;7.03;5.47;;;;;;;4.66;68.79;97398.88;4985278;28;20113;-85
2021/04/12 09:55:55;;;;;;;7.68;5.80;;;;;;;4.63;68.55;97404.28;4940371;28;20131;-84
2021/04/12 09:58:59;;;;;;;5.90;4.95;;;;;;;4.58;68.69;97402.06;4985885;28;20050;-84
2021/04/12 10:01:46;;;;;;;6.63;5.00;;;;;;;4.52;68.89;97411.13;4985090;28;20082;-83
2021/04/12 10:04:41;;;;;;;8.55;5.57;;;;;;;4.50;68.67;97410.47;4986823;28;20051;-88
2021/04/12 10:07:14;;;;;;;6.13;5.20;;;;;;;4.52;69.46;97407.75;4987806;28;20564;-89
2021/04/12 10:10:02;;;;;;;7.47;5.70;;;;;;;4.54;69.66;97414.41;4986824;28;20050;-86
2021/04/12 10:12:51;;;;;;;7.82;5.40;;;;;;;4.58;69.64;97416.78;4988607;28;20469;-87
2021/04/12 10:15:55;;;;;;;6.75;5.43;;;;;;;4.59;69.35;97420.97;5007369;28;20047;-81
2021/04/12 10:18:35;;;;;;;6.30;5.35;;;;;;;4.59;68.86;97419.25;4984942;28;20057;-85
2021/04/12 10:21:16;;;;;;;5.75;5.03;;;;;;;4.63;68.90;97422.38;4985962;28;20496;-88
2021/04/12 10:23:47;;;;;;;5.97;5.05;;;;;;;4.67;69.19;97422.00;4983851;28;20054;-87
2021/04/12 10:26:19;;;;;;;7.70;5.18;;;;;;;4.69;68.71;97425.28;5000110;28;20516;-86
2021/04/12 10:28:55;;;;;;;6.70;5.32;;;;;;;4.70;68.48;97429.53;5006035;28;20054;-84
2021/04/12 10:31:33;;;;;;;5.85;4.72;;;;;;;4.71;67.96;97428.56;5007212;28;20072;-89
2021/04/12 10:34:12;;;;;;;6.45;4.93;;;;;;;4.70;68.26;97428.69;4995088;28;20051;-89
2021/04/12 10:37:23;;;;;;;5.55;4.88;;;;;;;4.71;68.47;97427.75;4989945;28;20114;-90
2021/04/12 10:40:17;;;;;;;5.20;4.57;;;;;;;4.77;68.06;97432.44;4988912;28;20058;-87
2021/04/12 10:43:03;;;;;;;6.95;4.85;;;;;;;4.80;67.87;97428.75;4999770;28;20054;-87
2021/04/12 10:45:37;;;;;;;6.88;4.70;;;;;;;4.80;67.34;97427.00;5007311;28;20046;-88
2021/04/12 10:48:16;;;;;;;5.30;4.72;;;;;;;4.81;67.42;97438.16;5006597;28;20065;-88
2021/04/12 10:51:25;;;;;;;5.07;4.50;;;;;;;4.79;66.28;97440.88;5005728;28;20050;-85
2021/04/12 10:54:47;;;;;;;;;;;;;;;;;;;;;
2021/04/12 10:57:53;;;;;;;4.55;4.07;;;;;;;4.81;65.80;97441.56;5003837;28;20114;-83
2021/04/12 11:00:48;;;;;;;4.82;4.30;;;;;;;4.80;65.18;97441.69;5001047;28;20525;-86
2021/04/12 11:03:45;;;;;;;5.20;4.40;;;;;;;4.79;66.21;97440.88;5001955;28;20050;-83
2021/04/12 11:07:03;;;;;;;5.75;3.92;;;;;;;4.77;65.43;97445.34;5002637;28;20421;-86
2021/04/12 11:09:51;;;;;;;6.90;4.10;;;;;;;4.77;64.79;97447.94;5002816;28;20050;-86
2021/04/12 11:12:44;;;;;;;4.25;3.85;;;;;;;4.76;64.44;97454.03;5003262;28;20065;-82
2021/04/12 11:15:30;;;;;;;4.65;4.25;;;;;;;4.72;64.40;97452.63;5004810;28;20489;-81
2021/04/12 11:18:19;;;;;;;5.55;4.60;;;;;;;4.74;65.50;97448.16;5004282;28;20121;-82
2021/04/12 11:21:03;;;;;;;5.10;4.22;;;;;;;4.80;65.46;97439.91;5003921;28;20421;-88
2021/04/12 11:23:46;;;;;;;23.60;5.22;;;;;;;4.88;65.53;97453.03;5005056;28;20054;-84
2021/04/12 11:26:24;;;;;;;4.60;3.83;;;;;;;4.93;64.43;97448.31;5006094;28;20085;-80
2021/04/12 11:28:58;;;;;;;4.05;3.65;;;;;;;4.97;63.68;97450.66;5004341;28;20050;-82
2021/04/12 11:31:50;;;;;;;3.97;3.58;;;;;;;5.02;63.11;97448.50;4995486;28;20062;-87
2021/04/12 11:34:36;;;;;;;5.30;3.80;;;;;;;5.05;63.90;97454.25;5000503;28;20110;-85
2021/04/12 11:37:26;;;;;;;6.38;3.72;;;;;;;5.10;64.66;97449.53;5005982;28;20053;-85
2021/04/12 11:40:11;;;;;;;5.97;4.00;;;;;;;5.16;63.41;97450.78;5015964;28;20069;-88
2021/04/12 11:43:01;;;;;;;5.13;4.35;;;;;;;5.20;63.03;97453.94;5015573;28;20062;-91
2021/04/12 11:45:45;;;;;;;5.05;3.78;;;;;;;5.17;62.90;97447.25;5015377;28;20042;-90
2021/04/12 11:48:45;;;;;;;4.35;3.75;;;;;;;5.14;62.59;97448.31;5009071;28;20089;-87
2021/04/12 11:51:19;;;;;;;4.78;3.97;;;;;;;5.12;63.43;97463.16;5009680;28;20073;-90
2021/04/12 11:54:00;;;;;;;5.20;4.50;;;;;;;5.10;62.93;97469.41;5010751;28;20045;-87
2021/04/12 11:56:52;;;;;;;5.72;4.60;;;;;;;5.07;63.30;97459.28;5017021;28;20054;-90
2021/04/12 12:00:04;;;;;;;5.00;4.50;;;;;;;5.06;64.41;97465.41;5016480;28;20035;-89
2021/04/12 12:02:53;;;;;;;7.00;5.20;;;;;;;5.09;64.76;97478.09;5156464;23;20049;-86
2021/04/12 12:08:41;;;;;;;6.95;6.28;;;;;;;5.10;63.25;97475.38;5232809;23;20045;-85
2021/04/12 12:11:47;;;;;;;6.03;5.30;;;;;;;5.08;63.42;97486.81;5011937;28;20050;-85
2021/04/12 12:14:36;;;;;;;6.78;5.90;;;;;;;5.05;63.31;97494.78;5008115;28;20109;-87
2021/04/12 12:17:17;;;;;;;6.85;6.15;;;;;;;5.03;63.62;97494.94;4990900;28;20589;-85
2021/04/12 12:19:53;;;;;;;8.57;5.28;;;;;;;5.02;63.38;97498.47;4986707;28;20062;-83
2021/04/12 12:22:43;;;;;;;6.72;5.40;;;;;;;4.98;63.36;97496.25;4994415;28;20062;-87
2021/04/12 12:25:33;;;;;;;5.97;5.40;;;;;;;4.91;62.92;97501.91;5152288;23;20038;-89
2021/04/12 12:28:12;;;;;;;5.93;5.30;;;;;;;4.92;64.07;97498.41;5015645;28;20054;-86
2021/04/12 12:30:57;;;;;;;8.07;5.70;;;;;;;4.91;63.61;97501.09;5012636;28;20098;-89
2021/04/12 12:33:40;;;;;;;6.10;5.13;;;;;;;4.87;63.16;97505.69;5013117;28;20034;-87
2021/04/12 12:36:21;;;;;;;6.05;4.63;;;;;;;4.84;63.75;97505.94;5009078;28;20047;-84
2021/04/12 12:39:03;;;;;;;6.85;5.15;;;;;;;4.85;63.75;97502.41;5012743;28;20050;-82
2021/04/12 12:41:37;;;;;;;6.18;4.55;;;;;;;4.89;62.71;97513.31;4991873;28;20055;-84
2021/04/12 12:44:09;;;;;;;5.47;4.85;;;;;;;4.89;62.33;97511.56;4986222;28;20055;-82
2021/04/12 12:46:39;;;;;;;7.22;4.68;;;;;;;4.90;62.33;97515.78;4986402;28;20057;-83
2021/04/12 12:49:13;;;;;;;7.22;4.82;;;;;;;4.92;61.60;97524.25;4985023;28;20051;-83
2021/04/12 12:51:48;;;;;;;7.07;5.07;;;;;;;4.97;61.63;97520.47;4985491;28;20477;-80
2021/04/12 12:54:22;;;;;;;6.60;4.97;;;;;;;5.00;61.33;97517.63;4983921;28;20047;-79
2021/04/12 12:56:52;;;;;;;5.63;4.95;;;;;;;5.03;62.25;97513.03;4982735;28;20098;-78
2021/04/12 12:59:25;;;;;;;5.95;4.53;;;;;;;5.07;61.63;97519.59;4983133;28;20051;-77
2021/04/12 13:01:53;;;;;;;6.20;5.43;;;;;;;5.12;61.87;97520.03;4982570;28;20059;-79
2021/04/12 13:04:23;;;;;;;5.50;4.95;;;;;;;5.13;61.72;97520.84;4981855;28;20505;-79
2021/04/12 13:06:53;;;;;;;7.32;5.40;;;;;;;5.15;61.94;97518.97;4982796;28;20089;-78
2021/04/12 13:09:26;;;;;;;6.53;5.07;;;;;;;5.16;61.31;97520.63;4982611;28;20046;-80
2021/04/12 13:11:56;;;;;;;6.65;4.80;;;;;;;5.16;61.49;97518.03;4982165;28;20070;-80
2021/04/12 13:14:34;;;;;;;7.30;5.88;;;;;;;5.16;61.70;97521.44;4981998;28;20054;-82
2021/04/12 13:17:15;;;;;;;7.18;5.28;;;;;;;5.14;61.32;97532.88;4983743;28;20062;-79
2021/04/12 13:19:44;;;;;;;5.32;4.82;;;;;;;5.10;61.26;97526.28;4985385;28;20521;-81
2021/04/12 13:22:11;;;;;;;8.85;5.75;;;;;;;5.10;61.49;97521.94;4990351;28;20525;-83
2021/04/12 13:24:38;;;;;;;5.70;4.50;;;;;;;5.11;61.60;97526.16;4986478;28;20057;-83
2021/04/12 13:27:27;;;;;;;5.78;5.20;;;;;;;5.12;61.69;97527.00;4986801;28;20056;-79
2021/04/12 13:29:58;;;;;;;8.63;5.97;;;;;;;5.14;61.74;97525.09;4986032;28;20055;-79
2021/04/12 13:32:27;;;;;;;6.85;5.47;;;;;;;5.12;61.51;97524.41;4986146;28;20047;-82
2021/04/12 13:35:02;;;;;;;8.80;5.70;;;;;;;5.13;62.62;97526.03;4987503;28;20418;-82
2021/04/12 13:37:34;;;;;;;7.50;5.78;;;;;;;5.12;62.22;97524.41;4987434;28;20058;-79
2021/04/12 13:40:07;;;;;;;9.77;6.40;;;;;;;5.16;62.07;97520.63;4988945;28;20078;-80
2021/04/12 13:42:36;;;;;;;;;;;;;;;5.24;61.98;97523.38;4993267;28;20082;-80
2021/04/12 13:45:07;;;;;;;6.70;5.22;;;;;;;5.28;62.27;97522.19;4990738;28;19949;-79
2021/04/12 13:47:41;;;;;;;5.82;4.88;;;;;;;5.33;61.91;97522.63;4987684;28;20065;-81
2021/04/12 13:50:15;;;;;;;6.63;4.55;;;;;;;5.38;61.50;97517.09;5006842;28;20061;-81
2021/04/12 13:52:48;;;;;;;6.00;4.45;;;;;;;5.45;61.13;97520.00;4998395;28;20603;-84